sensor_id;sensor_type;location;lat;lon;timestamp;P1;durP1;ratioP1;P2;durP2;ratioP2
62401;SDS011;48440;51.224;22.506;2023-04-22T00:01:36;18.30;;;9.45;;
62401;SDS011;48440;51.224;22.506;2023-04-22T00:04:02;15.70;;;9.15;;
62401;SDS011;48440;51.224;22.506;2023-04-22T00:06:27;16.17;;;8.90;;
62401;SDS011;48440;51.224;22.506;2023-04-22T00:08:53;26.27;;;9.60;;
62401;SDS011;48440;51.224;22.506;2023-04-22T00:11:18;20.83;;;9.07;;
62401;SDS011;48440;51.224;22.506;2023-04-22T00:13:43;18.63;;;9.45;;
62401;SDS011;48440;51.224;22.506;2023-04-22T00:16:09;17.50;;;9.40;;
62401;SDS011;48440;51.224;22.506;2023-04-22T00:18:35;19.98;;;9.80;;
62401;SDS011;48440;51.224;22.506;2023-04-22T00:21:03;17.85;;;9.00;;
62401;SDS011;48440;51.224;22.506;2023-04-22T00:23:28;19.20;;;9.32;;
62401;SDS011;48440;51.224;22.506;2023-04-22T00:25:56;18.63;;;9.15;;
62401;SDS011;48440;51.224;22.506;2023-04-22T00:28:21;18.27;;;9.20;;
62401;SDS011;48440;51.224;22.506;2023-04-22T00:30:47;16.58;;;9.07;;
62401;SDS011;48440;51.224;22.506;2023-04-22T00:33:12;19.63;;;9.55;;
62401;SDS011;48440;51.224;22.506;2023-04-22T00:35:38;19.42;;;8.80;;
62401;SDS011;48440;51.224;22.506;2023-04-22T00:38:03;16.20;;;8.48;;
62401;SDS011;48440;51.224;22.506;2023-04-22T00:40:29;15.77;;;8.70;;
62401;SDS011;48440;51.224;22.506;2023-04-22T00:42:54;16.38;;;8.40;;
62401;SDS011;48440;51.224;22.506;2023-04-22T00:45:20;16.25;;;9.18;;
62401;SDS011;48440;51.224;22.506;2023-04-22T00:47:46;17.48;;;9.13;;
62401;SDS011;48440;51.224;22.506;2023-04-22T00:50:12;16.23;;;8.27;;
62401;SDS011;48440;51.224;22.506;2023-04-22T00:52:37;20.40;;;9.20;;
62401;SDS011;48440;51.224;22.506;2023-04-22T00:55:03;13.35;;;8.38;;
62401;SDS011;48440;51.224;22.506;2023-04-22T00:57:29;16.35;;;8.40;;
62401;SDS011;48440;51.224;22.506;2023-04-22T00:59:56;15.18;;;8.18;;
62401;SDS011;48440;51.224;22.506;2023-04-22T01:02:25;18.77;;;9.10;;
62401;SDS011;48440;51.224;22.506;2023-04-22T01:04:51;16.10;;;8.25;;
62401;SDS011;48440;51.224;22.506;2023-04-22T01:07:30;23.00;;;10.00;;
62401;SDS011;48440;51.224;22.506;2023-04-22T01:10:03;18.30;;;10.02;;
62401;SDS011;48440;51.224;22.506;2023-04-22T01:12:29;20.25;;;9.30;;
62401;SDS011;48440;51.224;22.506;2023-04-22T01:14:55;19.15;;;10.63;;
62401;SDS011;48440;51.224;22.506;2023-04-22T01:17:21;19.40;;;9.98;;
62401;SDS011;48440;51.224;22.506;2023-04-22T01:19:48;18.67;;;9.35;;
62401;SDS011;48440;51.224;22.506;2023-04-22T01:22:14;17.40;;;9.95;;
62401;SDS011;48440;51.224;22.506;2023-04-22T01:24:40;18.92;;;9.02;;
62401;SDS011;48440;51.224;22.506;2023-04-22T01:27:06;21.55;;;9.43;;
62401;SDS011;48440;51.224;22.506;2023-04-22T01:29:32;17.63;;;9.20;;
62401;SDS011;48440;51.224;22.506;2023-04-22T01:31:59;17.50;;;8.95;;
62401;SDS011;48440;51.224;22.506;2023-04-22T01:34:26;19.38;;;9.32;;
62401;SDS011;48440;51.224;22.506;2023-04-22T01:36:55;17.27;;;9.65;;
62401;SDS011;48440;51.224;22.506;2023-04-22T01:39:20;16.80;;;9.32;;
62401;SDS011;48440;51.224;22.506;2023-04-22T01:41:46;17.02;;;9.43;;
62401;SDS011;48440;51.224;22.506;2023-04-22T01:44:11;16.50;;;9.00;;
62401;SDS011;48440;51.224;22.506;2023-04-22T01:46:38;14.63;;;8.75;;
62401;SDS011;48440;51.224;22.506;2023-04-22T01:49:03;17.92;;;8.82;;
62401;SDS011;48440;51.224;22.506;2023-04-22T01:51:29;20.50;;;9.23;;
62401;SDS011;48440;51.224;22.506;2023-04-22T01:53:55;16.55;;;9.50;;
62401;SDS011;48440;51.224;22.506;2023-04-22T01:56:21;17.33;;;9.95;;
62401;SDS011;48440;51.224;22.506;2023-04-22T01:58:47;18.05;;;9.70;;
62401;SDS011;48440;51.224;22.506;2023-04-22T02:01:13;18.08;;;9.68;;
62401;SDS011;48440;51.224;22.506;2023-04-22T02:03:38;18.10;;;9.32;;
62401;SDS011;48440;51.224;22.506;2023-04-22T02:06:04;20.60;;;9.43;;
62401;SDS011;48440;51.224;22.506;2023-04-22T02:08:29;18.33;;;9.77;;
62401;SDS011;48440;51.224;22.506;2023-04-22T02:10:55;19.98;;;9.77;;
62401;SDS011;48440;51.224;22.506;2023-04-22T02:13:22;20.50;;;9.75;;
62401;SDS011;48440;51.224;22.506;2023-04-22T02:15:47;15.93;;;9.35;;
62401;SDS011;48440;51.224;22.506;2023-04-22T02:18:13;14.70;;;8.98;;
62401;SDS011;48440;51.224;22.506;2023-04-22T02:20:41;18.20;;;9.60;;
62401;SDS011;48440;51.224;22.506;2023-04-22T02:23:07;14.65;;;8.70;;
62401;SDS011;48440;51.224;22.506;2023-04-22T02:25:32;16.13;;;9.02;;
62401;SDS011;48440;51.224;22.506;2023-04-22T02:27:58;17.27;;;9.40;;
62401;SDS011;48440;51.224;22.506;2023-04-22T02:30:23;14.95;;;8.95;;
62401;SDS011;48440;51.224;22.506;2023-04-22T02:32:49;15.88;;;9.23;;
62401;SDS011;48440;51.224;22.506;2023-04-22T02:35:14;16.83;;;9.13;;
62401;SDS011;48440;51.224;22.506;2023-04-22T02:37:40;14.70;;;8.68;;
62401;SDS011;48440;51.224;22.506;2023-04-22T02:40:05;18.23;;;9.60;;
62401;SDS011;48440;51.224;22.506;2023-04-22T02:42:34;19.35;;;8.95;;
62401;SDS011;48440;51.224;22.506;2023-04-22T02:44:59;14.63;;;9.85;;
62401;SDS011;48440;51.224;22.506;2023-04-22T02:47:25;16.92;;;8.45;;
62401;SDS011;48440;51.224;22.506;2023-04-22T02:49:50;16.88;;;9.02;;
62401;SDS011;48440;51.224;22.506;2023-04-22T02:52:16;16.50;;;8.95;;
62401;SDS011;48440;51.224;22.506;2023-04-22T02:54:41;16.98;;;9.18;;
62401;SDS011;48440;51.224;22.506;2023-04-22T02:57:07;16.10;;;8.77;;
62401;SDS011;48440;51.224;22.506;2023-04-22T02:59:33;17.05;;;8.95;;
62401;SDS011;48440;51.224;22.506;2023-04-22T03:01:59;14.98;;;9.05;;
62401;SDS011;48440;51.224;22.506;2023-04-22T03:04:24;15.98;;;9.68;;
62401;SDS011;48440;51.224;22.506;2023-04-22T03:06:50;18.33;;;9.98;;
62401;SDS011;48440;51.224;22.506;2023-04-22T03:09:16;20.65;;;10.77;;
62401;SDS011;48440;51.224;22.506;2023-04-22T03:11:41;15.60;;;9.10;;
62401;SDS011;48440;51.224;22.506;2023-04-22T03:14:07;19.65;;;11.10;;
62401;SDS011;48440;51.224;22.506;2023-04-22T03:16:33;19.00;;;10.52;;
62401;SDS011;48440;51.224;22.506;2023-04-22T03:18:58;18.48;;;10.48;;
62401;SDS011;48440;51.224;22.506;2023-04-22T03:21:24;16.90;;;10.27;;
62401;SDS011;48440;51.224;22.506;2023-04-22T03:23:52;20.15;;;10.32;;
62401;SDS011;48440;51.224;22.506;2023-04-22T03:26:18;17.55;;;10.18;;
62401;SDS011;48440;51.224;22.506;2023-04-22T03:28:44;19.65;;;10.93;;
62401;SDS011;48440;51.224;22.506;2023-04-22T03:31:09;17.83;;;10.40;;
62401;SDS011;48440;51.224;22.506;2023-04-22T03:33:35;24.05;;;10.75;;
62401;SDS011;48440;51.224;22.506;2023-04-22T03:36:00;26.17;;;12.02;;
62401;SDS011;48440;51.224;22.506;2023-04-22T03:38:26;18.90;;;10.13;;
62401;SDS011;48440;51.224;22.506;2023-04-22T03:40:51;28.83;;;11.98;;
62401;SDS011;48440;51.224;22.506;2023-04-22T03:43:17;22.67;;;11.25;;
62401;SDS011;48440;51.224;22.506;2023-04-22T03:45:43;17.05;;;10.68;;
62401;SDS011;48440;51.224;22.506;2023-04-22T03:48:08;20.25;;;11.40;;
62401;SDS011;48440;51.224;22.506;2023-04-22T03:50:34;18.73;;;9.90;;
62401;SDS011;48440;51.224;22.506;2023-04-22T03:52:59;21.98;;;11.85;;
62401;SDS011;48440;51.224;22.506;2023-04-22T03:55:25;19.08;;;10.35;;
62401;SDS011;48440;51.224;22.506;2023-04-22T03:57:50;29.38;;;10.95;;
62401;SDS011;48440;51.224;22.506;2023-04-22T04:00:16;21.20;;;11.05;;
62401;SDS011;48440;51.224;22.506;2023-04-22T04:02:41;18.52;;;10.10;;
62401;SDS011;48440;51.224;22.506;2023-04-22T04:05:07;20.83;;;10.95;;
62401;SDS011;48440;51.224;22.506;2023-04-22T04:07:35;16.02;;;10.35;;
62401;SDS011;48440;51.224;22.506;2023-04-22T04:10:00;19.48;;;10.23;;
62401;SDS011;48440;51.224;22.506;2023-04-22T04:12:26;22.30;;;10.52;;
62401;SDS011;48440;51.224;22.506;2023-04-22T04:14:51;17.45;;;10.07;;
62401;SDS011;48440;51.224;22.506;2023-04-22T04:17:17;17.52;;;9.85;;
62401;SDS011;48440;51.224;22.506;2023-04-22T04:19:42;18.48;;;9.75;;
62401;SDS011;48440;51.224;22.506;2023-04-22T04:22:07;15.13;;;9.45;;
62401;SDS011;48440;51.224;22.506;2023-04-22T04:24:34;15.77;;;9.82;;
62401;SDS011;48440;51.224;22.506;2023-04-22T04:27:00;16.98;;;9.80;;
62401;SDS011;48440;51.224;22.506;2023-04-22T04:29:29;21.45;;;9.80;;
62401;SDS011;48440;51.224;22.506;2023-04-22T04:31:54;17.38;;;9.10;;
62401;SDS011;48440;51.224;22.506;2023-04-22T04:34:22;17.60;;;9.90;;
62401;SDS011;48440;51.224;22.506;2023-04-22T04:36:47;17.10;;;9.25;;
62401;SDS011;48440;51.224;22.506;2023-04-22T04:39:13;18.98;;;9.90;;
62401;SDS011;48440;51.224;22.506;2023-04-22T04:41:41;20.00;;;10.20;;
62401;SDS011;48440;51.224;22.506;2023-04-22T04:44:07;18.00;;;9.98;;
62401;SDS011;48440;51.224;22.506;2023-04-22T04:46:34;19.48;;;10.15;;
62401;SDS011;48440;51.224;22.506;2023-04-22T04:49:01;19.63;;;9.80;;
62401;SDS011;48440;51.224;22.506;2023-04-22T04:51:28;18.10;;;10.05;;
62401;SDS011;48440;51.224;22.506;2023-04-22T04:53:56;18.58;;;11.15;;
62401;SDS011;48440;51.224;22.506;2023-04-22T04:56:22;19.42;;;10.80;;
62401;SDS011;48440;51.224;22.506;2023-04-22T04:58:48;18.52;;;9.93;;
62401;SDS011;48440;51.224;22.506;2023-04-22T05:01:13;22.17;;;11.00;;
62401;SDS011;48440;51.224;22.506;2023-04-22T05:03:39;18.80;;;10.05;;
62401;SDS011;48440;51.224;22.506;2023-04-22T05:06:05;18.45;;;10.93;;
62401;SDS011;48440;51.224;22.506;2023-04-22T05:08:31;18.85;;;9.52;;
62401;SDS011;48440;51.224;22.506;2023-04-22T05:10:56;15.18;;;10.38;;
62401;SDS011;48440;51.224;22.506;2023-04-22T05:13:21;21.58;;;10.15;;
62401;SDS011;48440;51.224;22.506;2023-04-22T05:15:47;23.20;;;10.90;;
62401;SDS011;48440;51.224;22.506;2023-04-22T05:18:13;18.17;;;10.35;;
62401;SDS011;48440;51.224;22.506;2023-04-22T05:20:38;17.58;;;9.43;;
62401;SDS011;48440;51.224;22.506;2023-04-22T05:23:04;16.77;;;9.13;;
62401;SDS011;48440;51.224;22.506;2023-04-22T05:25:29;16.80;;;10.05;;
62401;SDS011;48440;51.224;22.506;2023-04-22T05:27:55;15.13;;;9.38;;
62401;SDS011;48440;51.224;22.506;2023-04-22T05:30:20;17.48;;;8.82;;
62401;SDS011;48440;51.224;22.506;2023-04-22T05:32:46;20.13;;;8.85;;
62401;SDS011;48440;51.224;22.506;2023-04-22T05:37:57;12.77;;;8.35;;
62401;SDS011;48440;51.224;22.506;2023-04-22T05:40:22;15.10;;;8.48;;
62401;SDS011;48440;51.224;22.506;2023-04-22T05:42:48;14.30;;;8.50;;
62401;SDS011;48440;51.224;22.506;2023-04-22T05:45:13;12.63;;;8.98;;
62401;SDS011;48440;51.224;22.506;2023-04-22T05:47:39;14.68;;;8.55;;
62401;SDS011;48440;51.224;22.506;2023-04-22T05:50:05;19.70;;;10.77;;
62401;SDS011;48440;51.224;22.506;2023-04-22T05:52:31;20.63;;;11.13;;
62401;SDS011;48440;51.224;22.506;2023-04-22T05:54:56;23.05;;;12.25;;
62401;SDS011;48440;51.224;22.506;2023-04-22T05:57:22;25.60;;;13.73;;
62401;SDS011;48440;51.224;22.506;2023-04-22T05:59:50;26.98;;;13.95;;
62401;SDS011;48440;51.224;22.506;2023-04-22T06:02:18;23.35;;;14.07;;
62401;SDS011;48440;51.224;22.506;2023-04-22T06:04:46;24.67;;;14.48;;
62401;SDS011;48440;51.224;22.506;2023-04-22T06:07:12;25.85;;;13.75;;
62401;SDS011;48440;51.224;22.506;2023-04-22T06:09:37;24.95;;;13.88;;
62401;SDS011;48440;51.224;22.506;2023-04-22T06:12:06;23.75;;;13.48;;
62401;SDS011;48440;51.224;22.506;2023-04-22T06:14:32;22.67;;;13.20;;
62401;SDS011;48440;51.224;22.506;2023-04-22T06:16:57;23.23;;;12.82;;
62401;SDS011;48440;51.224;22.506;2023-04-22T06:19:25;23.40;;;12.07;;
62401;SDS011;48440;51.224;22.506;2023-04-22T06:21:51;21.98;;;12.13;;
62401;SDS011;48440;51.224;22.506;2023-04-22T06:24:16;19.40;;;11.25;;
62401;SDS011;48440;51.224;22.506;2023-04-22T06:26:42;24.23;;;11.23;;
62401;SDS011;48440;51.224;22.506;2023-04-22T06:29:07;20.42;;;10.38;;
62401;SDS011;48440;51.224;22.506;2023-04-22T06:31:33;19.05;;;10.63;;
62401;SDS011;48440;51.224;22.506;2023-04-22T06:33:58;23.45;;;9.90;;
62401;SDS011;48440;51.224;22.506;2023-04-22T06:36:24;20.45;;;10.95;;
62401;SDS011;48440;51.224;22.506;2023-04-22T06:38:51;20.20;;;11.30;;
62401;SDS011;48440;51.224;22.506;2023-04-22T06:41:17;24.25;;;11.23;;
62401;SDS011;48440;51.224;22.506;2023-04-22T06:43:42;19.50;;;11.02;;
62401;SDS011;48440;51.224;22.506;2023-04-22T06:46:08;20.23;;;11.18;;
62401;SDS011;48440;51.224;22.506;2023-04-22T06:48:34;20.38;;;11.93;;
62401;SDS011;48440;51.224;22.506;2023-04-22T06:50:59;24.60;;;10.70;;
62401;SDS011;48440;51.224;22.506;2023-04-22T06:53:26;20.30;;;10.93;;
62401;SDS011;48440;51.224;22.506;2023-04-22T06:55:52;19.60;;;10.20;;
62401;SDS011;48440;51.224;22.506;2023-04-22T06:58:18;21.65;;;9.73;;
62401;SDS011;48440;51.224;22.506;2023-04-22T07:00:45;19.63;;;8.73;;
62401;SDS011;48440;51.224;22.506;2023-04-22T07:03:10;15.60;;;7.88;;
62401;SDS011;48440;51.224;22.506;2023-04-22T07:05:36;14.68;;;6.70;;
62401;SDS011;48440;51.224;22.506;2023-04-22T07:08:02;9.73;;;5.72;;
62401;SDS011;48440;51.224;22.506;2023-04-22T07:10:27;10.57;;;5.80;;
62401;SDS011;48440;51.224;22.506;2023-04-22T07:12:52;12.38;;;5.57;;
62401;SDS011;48440;51.224;22.506;2023-04-22T07:15:18;10.00;;;5.28;;
62401;SDS011;48440;51.224;22.506;2023-04-22T07:17:43;12.73;;;5.43;;
62401;SDS011;48440;51.224;22.506;2023-04-22T07:20:09;9.82;;;4.38;;
62401;SDS011;48440;51.224;22.506;2023-04-22T07:22:35;8.98;;;3.95;;
62401;SDS011;48440;51.224;22.506;2023-04-22T07:25:00;6.68;;;3.17;;
62401;SDS011;48440;51.224;22.506;2023-04-22T07:27:26;6.20;;;2.88;;
62401;SDS011;48440;51.224;22.506;2023-04-22T07:29:51;7.28;;;3.30;;
62401;SDS011;48440;51.224;22.506;2023-04-22T07:32:17;9.68;;;4.50;;
62401;SDS011;48440;51.224;22.506;2023-04-22T07:34:42;5.82;;;3.50;;
62401;SDS011;48440;51.224;22.506;2023-04-22T07:37:08;10.05;;;4.38;;
62401;SDS011;48440;51.224;22.506;2023-04-22T07:39:33;7.05;;;3.83;;
62401;SDS011;48440;51.224;22.506;2023-04-22T07:41:59;9.98;;;4.60;;
62401;SDS011;48440;51.224;22.506;2023-04-22T07:44:24;5.82;;;4.25;;
62401;SDS011;48440;51.224;22.506;2023-04-22T07:46:50;7.30;;;4.13;;
62401;SDS011;48440;51.224;22.506;2023-04-22T07:49:15;11.88;;;5.43;;
62401;SDS011;48440;51.224;22.506;2023-04-22T07:51:42;7.68;;;4.90;;
62401;SDS011;48440;51.224;22.506;2023-04-22T07:54:08;10.13;;;4.85;;
62401;SDS011;48440;51.224;22.506;2023-04-22T07:56:34;9.93;;;4.68;;
62401;SDS011;48440;51.224;22.506;2023-04-22T07:58:59;12.15;;;4.97;;
62401;SDS011;48440;51.224;22.506;2023-04-22T08:01:25;9.57;;;4.60;;
62401;SDS011;48440;51.224;22.506;2023-04-22T08:03:53;9.38;;;4.45;;
62401;SDS011;48440;51.224;22.506;2023-04-22T08:06:43;6.10;;;4.18;;
62401;SDS011;48440;51.224;22.506;2023-04-22T08:09:11;8.57;;;4.43;;
62401;SDS011;48440;51.224;22.506;2023-04-22T08:11:40;7.57;;;4.07;;
62401;SDS011;48440;51.224;22.506;2023-04-22T08:17:14;9.32;;;4.20;;
62401;SDS011;48440;51.224;22.506;2023-04-22T08:19:45;12.35;;;5.10;;
62401;SDS011;48440;51.224;22.506;2023-04-22T08:22:10;9.55;;;4.80;;
62401;SDS011;48440;51.224;22.506;2023-04-22T08:24:37;9.15;;;4.70;;
62401;SDS011;48440;51.224;22.506;2023-04-22T08:27:03;10.73;;;5.68;;
62401;SDS011;48440;51.224;22.506;2023-04-22T08:29:28;11.18;;;6.10;;
62401;SDS011;48440;51.224;22.506;2023-04-22T08:31:54;11.57;;;5.85;;
62401;SDS011;48440;51.224;22.506;2023-04-22T08:34:19;13.73;;;6.18;;
62401;SDS011;48440;51.224;22.506;2023-04-22T08:36:45;10.23;;;5.38;;
62401;SDS011;48440;51.224;22.506;2023-04-22T08:39:11;12.40;;;6.10;;
62401;SDS011;48440;51.224;22.506;2023-04-22T08:41:37;11.80;;;5.93;;
62401;SDS011;48440;51.224;22.506;2023-04-22T08:44:10;13.82;;;6.25;;
62401;SDS011;48440;51.224;22.506;2023-04-22T08:46:39;13.88;;;6.22;;
62401;SDS011;48440;51.224;22.506;2023-04-22T08:49:05;11.70;;;5.63;;
62401;SDS011;48440;51.224;22.506;2023-04-22T08:51:31;11.65;;;5.70;;
62401;SDS011;48440;51.224;22.506;2023-04-22T08:53:59;11.93;;;5.85;;
62401;SDS011;48440;51.224;22.506;2023-04-22T08:56:25;9.32;;;4.65;;
62401;SDS011;48440;51.224;22.506;2023-04-22T08:58:53;10.15;;;5.13;;
62401;SDS011;48440;51.224;22.506;2023-04-22T09:01:20;9.93;;;5.05;;
62401;SDS011;48440;51.224;22.506;2023-04-22T09:03:46;9.57;;;4.75;;
62401;SDS011;48440;51.224;22.506;2023-04-22T09:06:32;9.50;;;5.20;;
62401;SDS011;48440;51.224;22.506;2023-04-22T09:08:58;10.00;;;5.78;;
62401;SDS011;48440;51.224;22.506;2023-04-22T09:11:27;19.85;;;10.23;;
62401;SDS011;48440;51.224;22.506;2023-04-22T09:13:53;41.20;;;17.70;;
62401;SDS011;48440;51.224;22.506;2023-04-22T09:16:19;24.02;;;12.82;;
62401;SDS011;48440;51.224;22.506;2023-04-22T09:18:45;17.70;;;9.60;;
62401;SDS011;48440;51.224;22.506;2023-04-22T09:21:10;14.93;;;8.20;;
62401;SDS011;48440;51.224;22.506;2023-04-22T09:24:10;13.80;;;7.03;;
62401;SDS011;48440;51.224;22.506;2023-04-22T09:26:30;13.02;;;6.28;;
62401;SDS011;48440;51.224;22.506;2023-04-22T09:28:56;13.15;;;6.15;;
62401;SDS011;48440;51.224;22.506;2023-04-22T09:31:23;13.15;;;5.38;;
62401;SDS011;48440;51.224;22.506;2023-04-22T09:33:54;7.93;;;5.00;;
62401;SDS011;48440;51.224;22.506;2023-04-22T09:36:30;7.32;;;4.65;;
62401;SDS011;48440;51.224;22.506;2023-04-22T09:39:04;7.60;;;4.53;;
62401;SDS011;48440;51.224;22.506;2023-04-22T09:41:32;9.18;;;4.65;;
62401;SDS011;48440;51.224;22.506;2023-04-22T09:44:00;7.70;;;4.82;;
62401;SDS011;48440;51.224;22.506;2023-04-22T09:46:27;8.88;;;4.75;;
62401;SDS011;48440;51.224;22.506;2023-04-22T09:48:54;11.30;;;5.15;;
62401;SDS011;48440;51.224;22.506;2023-04-22T09:51:20;7.20;;;4.30;;
62401;SDS011;48440;51.224;22.506;2023-04-22T09:59:06;9.13;;;4.28;;
62401;SDS011;48440;51.224;22.506;2023-04-22T10:01:36;13.30;;;4.47;;
62401;SDS011;48440;51.224;22.506;2023-04-22T10:04:11;7.68;;;4.55;;
62401;SDS011;48440;51.224;22.506;2023-04-22T10:06:39;10.98;;;5.53;;
62401;SDS011;48440;51.224;22.506;2023-04-22T10:09:05;8.80;;;4.72;;
62401;SDS011;48440;51.224;22.506;2023-04-22T10:11:32;7.85;;;5.18;;
62401;SDS011;48440;51.224;22.506;2023-04-22T10:13:58;20.08;;;7.30;;
62401;SDS011;48440;51.224;22.506;2023-04-22T10:16:31;20.65;;;8.35;;
62401;SDS011;48440;51.224;22.506;2023-04-22T10:18:59;13.27;;;6.18;;
62401;SDS011;48440;51.224;22.506;2023-04-22T10:21:27;10.98;;;5.88;;
62401;SDS011;48440;51.224;22.506;2023-04-22T10:23:54;8.73;;;5.47;;
62401;SDS011;48440;51.224;22.506;2023-04-22T10:29:14;12.30;;;6.03;;
62401;SDS011;48440;51.224;22.506;2023-04-22T10:31:42;12.85;;;5.63;;
62401;SDS011;48440;51.224;22.506;2023-04-22T10:34:12;7.18;;;4.85;;
62401;SDS011;48440;51.224;22.506;2023-04-22T10:39:29;11.90;;;5.68;;
62401;SDS011;48440;51.224;22.506;2023-04-22T10:41:56;9.23;;;5.80;;
62401;SDS011;48440;51.224;22.506;2023-04-22T10:44:44;11.70;;;5.45;;
62401;SDS011;48440;51.224;22.506;2023-04-22T10:47:10;10.43;;;5.85;;
62401;SDS011;48440;51.224;22.506;2023-04-22T10:49:35;12.25;;;5.75;;
62401;SDS011;48440;51.224;22.506;2023-04-22T10:52:01;9.48;;;5.47;;
62401;SDS011;48440;51.224;22.506;2023-04-22T10:57:05;12.43;;;5.20;;
62401;SDS011;48440;51.224;22.506;2023-04-22T10:59:56;9.50;;;5.13;;
62401;SDS011;48440;51.224;22.506;2023-04-22T11:02:22;8.93;;;5.00;;
62401;SDS011;48440;51.224;22.506;2023-04-22T11:04:48;11.65;;;5.07;;
62401;SDS011;48440;51.224;22.506;2023-04-22T11:17:34;11.50;;;5.40;;
62401;SDS011;48440;51.224;22.506;2023-04-22T11:20:01;8.80;;;5.10;;
62401;SDS011;48440;51.224;22.506;2023-04-22T11:22:29;9.85;;;5.78;;
62401;SDS011;48440;51.224;22.506;2023-04-22T11:25:03;10.88;;;5.80;;
62401;SDS011;48440;51.224;22.506;2023-04-22T11:27:29;10.93;;;5.55;;
62401;SDS011;48440;51.224;22.506;2023-04-22T11:30:01;9.25;;;5.05;;
62401;SDS011;48440;51.224;22.506;2023-04-22T11:32:38;8.40;;;5.35;;
62401;SDS011;48440;51.224;22.506;2023-04-22T11:35:05;8.80;;;5.35;;
62401;SDS011;48440;51.224;22.506;2023-04-22T11:37:39;8.13;;;5.18;;
62401;SDS011;48440;51.224;22.506;2023-04-22T11:40:31;14.40;;;5.30;;
62401;SDS011;48440;51.224;22.506;2023-04-22T11:42:56;9.20;;;4.80;;
62401;SDS011;48440;51.224;22.506;2023-04-22T11:45:24;7.95;;;5.07;;
62401;SDS011;48440;51.224;22.506;2023-04-22T11:47:50;12.23;;;5.40;;
62401;SDS011;48440;51.224;22.506;2023-04-22T11:50:17;12.73;;;6.03;;
62401;SDS011;48440;51.224;22.506;2023-04-22T11:52:53;9.20;;;5.20;;
62401;SDS011;48440;51.224;22.506;2023-04-22T11:55:21;11.20;;;5.38;;
62401;SDS011;48440;51.224;22.506;2023-04-22T12:00:19;11.10;;;4.82;;
62401;SDS011;48440;51.224;22.506;2023-04-22T12:05:30;11.85;;;5.28;;
62401;SDS011;48440;51.224;22.506;2023-04-22T12:08:16;10.98;;;5.55;;
62401;SDS011;48440;51.224;22.506;2023-04-22T12:10:46;12.30;;;5.80;;
62401;SDS011;48440;51.224;22.506;2023-04-22T12:13:32;11.50;;;6.05;;
62401;SDS011;48440;51.224;22.506;2023-04-22T12:16:09;7.88;;;5.60;;
62401;SDS011;48440;51.224;22.506;2023-04-22T12:18:49;11.93;;;6.10;;
62401;SDS011;48440;51.224;22.506;2023-04-22T12:21:16;8.43;;;5.60;;
62401;SDS011;48440;51.224;22.506;2023-04-22T12:23:44;9.35;;;5.72;;
62401;SDS011;48440;51.224;22.506;2023-04-22T12:26:12;8.90;;;5.53;;
62401;SDS011;48440;51.224;22.506;2023-04-22T12:28:39;14.32;;;6.68;;
62401;SDS011;48440;51.224;22.506;2023-04-22T12:31:06;13.65;;;6.13;;
62401;SDS011;48440;51.224;22.506;2023-04-22T12:33:32;13.20;;;6.05;;
62401;SDS011;48440;51.224;22.506;2023-04-22T12:35:58;9.00;;;5.90;;
62401;SDS011;48440;51.224;22.506;2023-04-22T12:38:24;9.98;;;5.50;;
62401;SDS011;48440;51.224;22.506;2023-04-22T12:40:50;12.10;;;6.35;;
62401;SDS011;48440;51.224;22.506;2023-04-22T12:43:16;11.23;;;6.05;;
62401;SDS011;48440;51.224;22.506;2023-04-22T12:45:41;13.85;;;6.72;;
62401;SDS011;48440;51.224;22.506;2023-04-22T12:48:07;10.05;;;6.43;;
62401;SDS011;48440;51.224;22.506;2023-04-22T12:50:32;10.75;;;5.85;;
62401;SDS011;48440;51.224;22.506;2023-04-22T12:52:58;9.68;;;6.32;;
62401;SDS011;48440;51.224;22.506;2023-04-22T12:55:24;12.35;;;5.68;;
62401;SDS011;48440;51.224;22.506;2023-04-22T12:57:50;11.77;;;5.82;;
62401;SDS011;48440;51.224;22.506;2023-04-22T13:00:16;8.90;;;5.55;;
62401;SDS011;48440;51.224;22.506;2023-04-22T13:02:42;12.45;;;6.13;;
62401;SDS011;48440;51.224;22.506;2023-04-22T13:05:09;11.07;;;6.38;;
62401;SDS011;48440;51.224;22.506;2023-04-22T13:07:35;11.52;;;6.43;;
62401;SDS011;48440;51.224;22.506;2023-04-22T13:10:02;8.30;;;5.57;;
62401;SDS011;48440;51.224;22.506;2023-04-22T13:12:31;11.73;;;5.50;;
62401;SDS011;48440;51.224;22.506;2023-04-22T13:14:57;9.20;;;5.82;;
62401;SDS011;48440;51.224;22.506;2023-04-22T13:17:22;9.30;;;6.15;;
62401;SDS011;48440;51.224;22.506;2023-04-22T13:19:48;7.35;;;4.82;;
62401;SDS011;48440;51.224;22.506;2023-04-22T13:22:15;9.52;;;5.50;;
62401;SDS011;48440;51.224;22.506;2023-04-22T13:24:40;10.02;;;5.28;;
62401;SDS011;48440;51.224;22.506;2023-04-22T13:27:06;11.15;;;5.82;;
62401;SDS011;48440;51.224;22.506;2023-04-22T13:29:32;10.68;;;5.53;;
62401;SDS011;48440;51.224;22.506;2023-04-22T13:31:58;10.68;;;5.63;;
62401;SDS011;48440;51.224;22.506;2023-04-22T13:34:23;11.20;;;5.30;;
62401;SDS011;48440;51.224;22.506;2023-04-22T13:36:49;10.32;;;5.50;;
62401;SDS011;48440;51.224;22.506;2023-04-22T13:39:15;10.00;;;6.07;;
62401;SDS011;48440;51.224;22.506;2023-04-22T13:41:41;10.68;;;5.25;;
62401;SDS011;48440;51.224;22.506;2023-04-22T13:44:09;8.52;;;5.10;;
62401;SDS011;48440;51.224;22.506;2023-04-22T13:46:35;10.48;;;5.38;;
62401;SDS011;48440;51.224;22.506;2023-04-22T13:49:01;11.82;;;5.32;;
62401;SDS011;48440;51.224;22.506;2023-04-22T13:51:26;9.90;;;5.70;;
62401;SDS011;48440;51.224;22.506;2023-04-22T13:53:52;13.98;;;6.53;;
62401;SDS011;48440;51.224;22.506;2023-04-22T13:56:17;11.43;;;6.18;;
62401;SDS011;48440;51.224;22.506;2023-04-22T13:58:43;8.98;;;5.30;;
62401;SDS011;48440;51.224;22.506;2023-04-22T14:01:08;12.98;;;5.32;;
62401;SDS011;48440;51.224;22.506;2023-04-22T14:03:34;12.40;;;5.75;;
62401;SDS011;48440;51.224;22.506;2023-04-22T14:06:00;7.95;;;5.35;;
62401;SDS011;48440;51.224;22.506;2023-04-22T14:08:26;8.13;;;4.72;;
62401;SDS011;48440;51.224;22.506;2023-04-22T14:10:52;8.38;;;5.28;;
62401;SDS011;48440;51.224;22.506;2023-04-22T14:13:18;8.52;;;4.68;;
62401;SDS011;48440;51.224;22.506;2023-04-22T14:15:47;9.05;;;4.68;;
62401;SDS011;48440;51.224;22.506;2023-04-22T14:18:17;9.25;;;5.03;;
62401;SDS011;48440;51.224;22.506;2023-04-22T14:20:46;13.68;;;5.50;;
62401;SDS011;48440;51.224;22.506;2023-04-22T14:23:11;8.48;;;5.15;;
62401;SDS011;48440;51.224;22.506;2023-04-22T14:25:39;8.35;;;5.00;;
62401;SDS011;48440;51.224;22.506;2023-04-22T14:32:22;9.75;;;5.13;;
62401;SDS011;48440;51.224;22.506;2023-04-22T14:34:49;8.15;;;4.70;;
62401;SDS011;48440;51.224;22.506;2023-04-22T14:37:18;6.78;;;4.30;;
62401;SDS011;48440;51.224;22.506;2023-04-22T14:39:43;8.25;;;4.43;;
62401;SDS011;48440;51.224;22.506;2023-04-22T14:42:09;6.47;;;3.97;;
62401;SDS011;48440;51.224;22.506;2023-04-22T14:44:35;11.05;;;5.03;;
62401;SDS011;48440;51.224;22.506;2023-04-22T14:47:00;36.17;;;11.63;;
62401;SDS011;48440;51.224;22.506;2023-04-22T14:49:35;29.65;;;9.63;;
62401;SDS011;48440;51.224;22.506;2023-04-22T14:52:00;19.27;;;7.05;;
62401;SDS011;48440;51.224;22.506;2023-04-22T14:54:32;13.27;;;5.80;;
62401;SDS011;48440;51.224;22.506;2023-04-22T14:57:01;11.00;;;5.30;;
62401;SDS011;48440;51.224;22.506;2023-04-22T14:59:30;11.10;;;4.85;;